Time;durP1;ratioP1;P1;durP2;ratioP2;P2;SDS_P1;SDS_P2;PMS_P1;PMS_P2;Temp;Humidity;BMP_temperature;BMP_pressure;BME280_temperature;BME280_humidity;BME280_pressure;Samples;Min_cycle;Max_cycle;Signal;HPM_P1;HPM_P2
2021/05/12 00:00:55;;;;;;;13.23;8.98;;;11.30;99.90;;;;;;5101964;28;20002;-57
2021/05/12 00:03:21;;;;;;;;;;;11.30;99.90;;;;;;5101579;28;20036;-61
2021/05/12 00:05:46;;;;;;;11.98;7.60;;;11.20;99.90;;;;;;5102212;28;19920;-57
2021/05/12 00:08:12;;;;;;;;;;;11.20;99.90;;;;;;5103614;28;20402;-60
2021/05/12 00:10:37;;;;;;;14.25;8.88;;;11.20;99.90;;;;;;5102353;28;19993;-55
2021/05/12 00:13:03;;;;;;;;;;;11.10;99.90;;;;;;5102818;28;20305;-56
2021/05/12 00:15:29;;;;;;;15.35;9.18;;;11.00;99.90;;;;;;5100989;28;19919;-58
2021/05/12 00:17:54;;;;;;;;;;;11.00;99.90;;;;;;5094457;28;20045;-60
2021/05/12 00:20:27;;;;;;;23.05;11.90;;;11.10;99.90;;;;;;5089422;28;19916;-61
2021/05/12 00:25:21;;;;;;;18.40;10.68;;;11.10;99.90;;;;;;5087829;28;20044;-58
2021/05/12 00:27:47;;;;;;;;;;;11.00;99.90;;;;;;5082616;28;20408;-58
2021/05/12 00:30:16;;;;;;;22.10;14.23;;;11.00;99.90;;;;;;5081324;28;19978;-60
2021/05/12 00:32:42;;;;;;;19.30;13.85;;;11.00;99.90;;;;;;5088533;28;20044;-59
2021/05/12 00:35:10;;;;;;;26.95;17.13;;;11.00;99.90;;;;;;5088088;28;20572;-59
2021/05/12 00:37:35;;;;;;;23.63;14.95;;;11.00;99.90;;;;;;5088125;28;20089;-57
2021/05/12 00:40:01;;;;;;;;;;;11.00;99.90;;;;;;5088137;28;20303;-58
2021/05/12 00:42:28;;;;;;;29.33;15.07;;;11.00;99.90;;;;;;5088693;28;19967;-61
2021/05/12 00:44:54;;;;;;;26.92;18.02;;;11.00;99.90;;;;;;5087492;28;20036;-59
2021/05/12 00:47:23;;;;;;;;;;;10.90;99.90;;;;;;5087782;28;20101;-60
2021/05/12 00:49:49;;;;;;;31.33;18.10;;;10.90;99.90;;;;;;5087811;28;19915;-59
2021/05/12 00:52:14;;;;;;;;;;;10.90;99.90;;;;;;5088426;28;20201;-61
2021/05/12 00:54:40;;;;;;;24.67;15.52;;;10.90;99.90;;;;;;5087964;28;20416;-58
2021/05/12 00:57:05;;;;;;;;;;;10.90;99.90;;;;;;5085038;28;20599;-59
2021/05/12 00:59:33;;;;;;;27.88;16.75;;;10.90;99.90;;;;;;5087064;28;19985;-61
2021/05/12 01:01:59;;;;;;;27.25;17.45;;;10.90;99.90;;;;;;5087259;28;20192;-60
2021/05/12 01:04:25;;;;;;;;;;;10.90;99.90;;;;;;5087621;28;20653;-59
2021/05/12 01:06:50;;;;;;;31.48;18.67;;;10.90;99.90;;;;;;5086262;28;20517;-58
2021/05/12 01:09:16;;;;;;;;;;;10.90;99.90;;;;;;5087744;28;20157;-54
2021/05/12 01:11:43;;;;;;;29.90;18.67;;;10.80;99.90;;;;;;5087727;28;19920;-59
2021/05/12 01:14:09;;;;;;;31.30;18.67;;;10.90;99.90;;;;;;5086812;28;20052;-59
2021/05/12 01:16:34;;;;;;;;;;;10.80;99.90;;;;;;5086700;28;20050;-61
2021/05/12 01:19:00;;;;;;;39.22;21.20;;;10.80;99.90;;;;;;5087831;28;20345;-57
2021/05/12 01:21:26;;;;;;;;;;;10.80;99.90;;;;;;5088251;28;20036;-60
2021/05/12 01:23:51;;;;;;;32.78;19.75;;;10.80;99.90;;;;;;5087629;28;19916;-60
2021/05/12 01:26:18;;;;;;;;;;;10.80;99.90;;;;;;5067853;28;20055;-60
2021/05/12 01:28:46;;;;;;;47.97;28.20;;;10.80;99.90;;;;;;5083542;28;20486;-60
2021/05/12 01:31:16;;;;;;;50.80;26.75;;;10.80;99.90;;;;;;5086626;28;20123;-60
2021/05/12 01:33:43;;;;;;;46.65;27.52;;;10.80;99.90;;;;;;5087014;28;20650;-61
2021/05/12 01:36:10;;;;;;;53.13;29.23;;;10.80;99.90;;;;;;5086227;28;20424;-58
2021/05/12 01:38:37;;;;;;;47.47;28.52;;;10.80;99.90;;;;;;5086818;28;20126;-61
2021/05/12 01:41:04;;;;;;;59.92;33.35;;;10.80;99.90;;;;;;5087351;28;20450;-57
2021/05/12 01:43:31;;;;;;;54.38;31.52;;;10.80;99.90;;;;;;5086700;28;20510;-60
2021/05/12 01:45:57;;;;;;;59.10;32.63;;;10.80;99.90;;;;;;5085016;28;20048;-59
2021/05/12 01:48:23;;;;;;;;;;;10.80;99.90;;;;;;5087438;28;20319;-60
2021/05/12 01:50:48;;;;;;;57.47;33.25;;;10.70;99.90;;;;;;5087088;28;20548;-59
2021/05/12 01:53:14;;;;;;;;;;;10.80;99.90;;;;;;5087649;28;20036;-57
2021/05/12 01:55:40;;;;;;;56.65;35.03;;;10.70;99.90;;;;;;5085264;28;19924;-60
2021/05/12 01:58:06;;;;;;;;;;;10.70;99.90;;;;;;5083452;28;20285;-59
2021/05/12 02:00:37;;;;;;;59.45;35.55;;;10.70;99.90;;;;;;5086893;28;20000;-60
2021/05/12 02:03:05;;;;;;;57.15;35.25;;;10.70;99.90;;;;;;5086265;28;20169;-57
2021/05/12 02:05:31;;;;;;;56.25;35.22;;;10.70;99.90;;;;;;5085154;28;20051;-60
2021/05/12 02:07:58;;;;;;;60.22;36.53;;;10.70;99.90;;;;;;5085449;28;20040;-61
2021/05/12 02:10:25;;;;;;;58.28;35.85;;;10.70;99.90;;;;;;5085718;28;20059;-60
2021/05/12 02:12:51;;;;;;;61.55;35.80;;;10.70;99.90;;;;;;5085944;28;20048;-59
2021/05/12 02:15:18;;;;;;;61.53;37.85;;;10.80;99.90;;;;;;5085213;28;20115;-62
2021/05/12 02:17:43;;;;;;;62.88;36.15;;;10.80;99.90;;;;;;5086616;28;20048;-58
2021/05/12 02:20:11;;;;;;;;;;;10.80;99.90;;;;;;5087191;28;20085;-61
2021/05/12 02:22:37;;;;;;;58.83;36.28;;;10.70;99.90;;;;;;5086428;28;19926;-61
2021/05/12 02:25:05;;;;;;;58.70;35.88;;;10.70;99.90;;;;;;5085454;28;20077;-60
2021/05/12 02:27:30;;;;;;;61.53;36.72;;;10.70;99.90;;;;;;5082058;28;20047;-61
2021/05/12 02:30:00;;;;;;;;;;;10.80;99.90;;;;;;5086868;28;20032;-60
2021/05/12 02:32:26;;;;;;;56.78;34.50;;;10.70;99.90;;;;;;5084460;28;19923;-61
2021/05/12 02:34:52;;;;;;;;;;;10.70;99.90;;;;;;5079108;28;20044;-60
2021/05/12 02:37:17;;;;;;;56.67;34.92;;;10.70;99.90;;;;;;5086145;28;19947;-59
2021/05/12 02:39:43;;;;;;;;;;;10.70;99.90;;;;;;5086599;28;20369;-59
2021/05/12 02:42:08;;;;;;;48.33;30.95;;;10.70;99.90;;;;;;5086055;28;19916;-58
2021/05/12 02:44:34;;;;;;;;;;;10.80;99.90;;;;;;5085309;28;20562;-57
2021/05/12 02:46:59;;;;;;;53.35;33.50;;;10.60;99.90;;;;;;5085359;28;20011;-60
2021/05/12 02:49:25;;;;;;;;;;;10.60;99.90;;;;;;5086783;28;20047;-58
2021/05/12 02:51:50;;;;;;;47.25;29.73;;;10.70;99.90;;;;;;5085772;28;19916;-54
2021/05/12 02:54:16;;;;;;;;;;;10.60;99.90;;;;;;5086007;28;20040;-57
2021/05/12 02:56:41;;;;;;;49.92;29.13;;;10.60;99.90;;;;;;5084656;28;20019;-60
2021/05/12 02:59:07;;;;;;;;;;;10.70;99.90;;;;;;5086547;28;20102;-60
2021/05/12 03:01:32;;;;;;;43.05;27.40;;;10.70;99.90;;;;;;5084827;28;19919;-59
2021/05/12 03:03:58;;;;;;;;;;;10.60;99.90;;;;;;5079954;28;20396;-60
2021/05/12 03:06:23;;;;;;;42.30;26.73;;;10.60;99.90;;;;;;5085249;28;19977;-60
2021/05/12 03:08:49;;;;;;;;;;;10.60;99.90;;;;;;5086661;28;20090;-58
2021/05/12 03:11:15;;;;;;;44.17;26.80;;;10.60;99.90;;;;;;5084924;28;19926;-59
2021/05/12 03:13:41;;;;;;;41.33;26.02;;;10.60;99.90;;;;;;5085114;28;20051;-59
2021/05/12 03:16:06;;;;;;;;;;;10.50;99.90;;;;;;5085459;28;20044;-59
2021/05/12 03:18:32;;;;;;;49.42;27.42;;;10.60;99.90;;;;;;5086998;28;19969;-60
2021/05/12 03:20:57;;;;;;;;;;;10.50;99.90;;;;;;5086369;28;20106;-60
2021/05/12 03:23:23;;;;;;;36.95;23.90;;;10.50;99.90;;;;;;5085989;28;19923;-60
2021/05/12 03:25:48;;;;;;;;;;;10.50;99.90;;;;;;5084641;28;20044;-60
2021/05/12 03:28:14;;;;;;;42.97;26.83;;;10.50;99.90;;;;;;5082991;28;20015;-55
2021/05/12 03:30:39;;;;;;;;;;;10.50;99.90;;;;;;5085770;28;20032;-57
2021/05/12 03:33:08;;;;;;;44.35;28.08;;;10.50;99.90;;;;;;5085945;28;19998;-59
2021/05/12 03:35:35;;;;;;;45.15;27.10;;;10.50;99.90;;;;;;5084562;28;20050;-59
2021/05/12 03:38:02;;;;;;;55.42;30.98;;;10.50;99.90;;;;;;5087585;28;20496;-59
2021/05/12 03:40:28;;;;;;;43.92;27.20;;;10.50;99.90;;;;;;5086532;28;20032;-57
2021/05/12 03:42:58;;;;;;;48.97;29.60;;;10.50;99.90;;;;;;5085967;28;20044;-60
2021/05/12 03:45:24;;;;;;;45.63;28.85;;;10.50;99.90;;;;;;5084931;28;20031;-60
2021/05/12 03:47:50;;;;;;;;;;;10.40;99.90;;;;;;5086724;28;20040;-59
2021/05/12 03:50:17;;;;;;;46.22;28.30;;;10.50;99.90;;;;;;5086434;28;20593;-61
2021/05/12 03:52:43;;;;;;;48.28;28.48;;;10.40;99.90;;;;;;5086167;28;20040;-61
2021/05/12 03:55:10;;;;;;;48.63;27.63;;;10.50;99.90;;;;;;5088279;28;20131;-60
2021/05/12 03:57:36;;;;;;;54.83;30.60;;;10.50;99.90;;;;;;5085431;28;20054;-60
2021/05/12 04:00:03;;;;;;;;;;;10.50;99.90;;;;;;5089531;28;20112;-59
2021/05/12 04:02:29;;;;;;;46.30;27.88;;;10.50;99.90;;;;;;5089099;28;19919;-60
2021/05/12 04:04:54;;;;;;;;;;;10.50;99.90;;;;;;5089513;28;20093;-59
2021/05/12 04:07:20;;;;;;;55.08;32.03;;;10.50;99.90;;;;;;5084628;28;20285;-58
2021/05/12 04:09:45;;;;;;;;;;;10.60;99.90;;;;;;5086270;28;20067;-62
2021/05/12 04:12:11;;;;;;;70.05;38.97;;;10.50;99.90;;;;;;5088940;28;19920;-57
2021/05/12 04:14:36;;;;;;;;;;;10.50;99.90;;;;;;5088476;28;20452;-57
2021/05/12 04:17:02;;;;;;;62.15;38.03;;;10.50;99.90;;;;;;5087776;28;19946;-57
2021/05/12 04:19:28;;;;;;;;;;;10.50;99.90;;;;;;5088917;28;20576;-57
2021/05/12 04:21:53;;;;;;;62.97;35.92;;;10.50;99.90;;;;;;5088310;28;19916;-59
2021/05/12 04:24:19;;;;;;;;;;;10.50;99.90;;;;;;5088826;28;20518;-56
2021/05/12 04:26:44;;;;;;;81.78;43.20;;;10.50;99.90;;;;;;5084141;28;19930;-60
2021/05/12 04:29:10;;;;;;;;;;;10.50;99.90;;;;;;5082520;28;20042;-60
2021/05/12 04:31:36;;;;;;;60.30;36.90;;;10.50;99.90;;;;;;5087456;28;19926;-57
2021/05/12 04:34:02;;;;;;;;;;;10.50;99.90;;;;;;5088313;28;20512;-60
2021/05/12 04:36:27;;;;;;;75.97;43.65;;;10.60;99.90;;;;;;5088703;28;19916;-55
2021/05/12 04:38:53;;;;;;;;;;;10.60;99.90;;;;;;5088946;28;20043;-57
2021/05/12 04:41:19;;;;;;;70.43;40.03;;;10.60;99.90;;;;;;5086616;28;19916;-55
2021/05/12 04:43:45;;;;;;;;;;;10.60;99.90;;;;;;5088164;28;20060;-57
2021/05/12 04:46:11;;;;;;;71.60;40.72;;;10.60;99.90;;;;;;5086936;28;20396;-57
2021/05/12 04:48:36;;;;;;;;;;;10.60;99.90;;;;;;5088681;28;20035;-56
2021/05/12 04:51:02;;;;;;;79.32;41.03;;;10.60;99.90;;;;;;5088352;28;19927;-56
2021/05/12 04:53:28;;;;;;;;;;;10.50;99.90;;;;;;5088633;28;20035;-58
2021/05/12 04:55:53;;;;;;;70.65;41.53;;;10.50;99.90;;;;;;5086991;28;20411;-54
2021/05/12 04:58:20;;;;;;;;;;;10.60;99.90;;;;;;5085197;28;20039;-57
2021/05/12 05:00:46;;;;;;;87.70;45.60;;;10.60;99.90;;;;;;5087224;28;20327;-55
2021/05/12 05:03:11;;;;;;;;;;;10.60;99.90;;;;;;5088801;28;20040;-56
2021/05/12 05:05:37;;;;;;;68.13;41.30;;;10.60;99.90;;;;;;5086793;28;19924;-55
2021/05/12 05:08:02;;;;;;;;;;;10.60;99.90;;;;;;5086308;28;20044;-54
2021/05/12 05:10:28;;;;;;;73.00;39.95;;;10.60;99.90;;;;;;5074027;28;19916;-55
2021/05/12 05:12:54;;;;;;;;;;;10.70;99.90;;;;;;5067637;28;20483;-57
2021/05/12 05:15:19;;;;;;;66.50;37.75;;;10.70;99.90;;;;;;5065843;28;20688;-56
2021/05/12 05:17:45;;;;;;;;;;;10.70;99.90;;;;;;5067968;28;20523;-56
2021/05/12 05:20:12;;;;;;;64.40;36.60;;;10.70;99.90;;;;;;5067259;28;19926;-57
2021/05/12 05:22:38;;;;;;;68.57;39.63;;;10.80;99.90;;;;;;5067303;28;20435;-55
2021/05/12 05:25:04;;;;;;;;;;;10.80;99.90;;;;;;5066167;28;20037;-57
2021/05/12 05:27:29;;;;;;;75.30;39.97;;;10.80;99.90;;;;;;5074585;28;20008;-57
2021/05/12 05:29:55;;;;;;;;;;;10.80;99.90;;;;;;5087379;28;20079;-56
2021/05/12 05:32:21;;;;;;;60.33;34.30;;;10.70;99.90;;;;;;5087123;28;19926;-57
2021/05/12 05:34:47;;;;;;;64.13;36.17;;;10.80;99.90;;;;;;5086432;28;20044;-57
2021/05/12 05:37:12;;;;;;;;;;;10.80;99.90;;;;;;5087009;28;20048;-57
2021/05/12 05:39:38;;;;;;;55.42;32.55;;;10.70;99.90;;;;;;5086600;28;19920;-56
2021/05/12 05:42:08;;;;;;;;;;;10.70;99.90;;;;;;5086668;28;20150;-56
2021/05/12 05:44:34;;;;;;;55.30;33.15;;;10.70;99.90;;;;;;5086691;28;19916;-57
2021/05/12 05:47:00;;;;;;;63.13;32.30;;;10.80;99.90;;;;;;5085492;28;20048;-57
2021/05/12 05:49:26;;;;;;;56.15;32.05;;;10.80;99.90;;;;;;5081497;28;20058;-56
2021/05/12 05:51:54;;;;;;;;;;;10.90;99.90;;;;;;5087189;28;20040;-51
2021/05/12 05:54:21;;;;;;;56.22;31.65;;;10.80;99.90;;;;;;5086667;28;20702;-57
2021/05/12 05:56:47;;;;;;;58.20;31.50;;;10.90;99.90;;;;;;5082460;28;20507;-56
2021/05/12 05:59:13;;;;;;;51.65;29.33;;;10.80;99.90;;;;;;5085865;28;20036;-55
2021/05/12 06:01:39;;;;;;;;;;;10.90;99.90;;;;;;5085557;28;20040;-55
2021/05/12 06:04:04;;;;;;;43.30;25.58;;;10.90;99.90;;;;;;5086580;28;20397;-57
2021/05/12 06:06:30;;;;;;;;;;;10.80;99.90;;;;;;5086555;28;20100;-57
2021/05/12 06:08:56;;;;;;;46.15;24.52;;;10.90;99.90;;;;;;5086474;28;20014;-58
2021/05/12 06:11:21;;;;;;;;;;;10.90;99.90;;;;;;5086629;28;20411;-55
2021/05/12 06:13:49;;;;;;;47.85;26.40;;;10.90;99.90;;;;;;5086472;28;19916;-58
2021/05/12 06:16:16;;;;;;;46.03;24.90;;;10.90;99.90;;;;;;5084406;28;20123;-57
2021/05/12 06:18:42;;;;;;;42.72;24.73;;;11.00;99.90;;;;;;5086120;28;20051;-56
2021/05/12 06:21:07;;;;;;;;;;;11.10;99.90;;;;;;5085841;28;20040;-57
2021/05/12 06:23:32;;;;;;;40.08;20.38;;;11.10;99.90;;;;;;5086355;28;19920;-55
2021/05/12 06:25:59;;;;;;;;;;;11.20;99.90;;;;;;5084399;28;20044;-57
2021/05/12 06:28:24;;;;;;;40.40;20.58;;;11.20;99.90;;;;;;5078998;28;20006;-57
2021/05/12 06:30:50;;;;;;;;;;;11.30;99.90;;;;;;5086319;28;20469;-51
2021/05/12 06:33:19;;;;;;;30.65;16.70;;;11.40;99.90;;;;;;5086847;28;19981;-57
2021/05/12 06:35:45;;;;;;;33.63;17.88;;;11.50;99.90;;;;;;5084927;28;20052;-53
2021/05/12 06:38:11;;;;;;;;;;;11.50;99.90;;;;;;5086929;28;20098;-57
2021/05/12 06:40:39;;;;;;;29.75;15.68;;;11.60;99.90;;;;;;5085880;28;20702;-58
2021/05/12 06:43:05;;;;;;;28.73;15.45;;;11.60;99.90;;;;;;5085655;28;20044;-56
2021/05/12 06:45:30;;;;;;;;;;;11.60;99.90;;;;;;5084505;28;20082;-56
2021/05/12 06:47:56;;;;;;;26.10;13.00;;;11.80;99.90;;;;;;5085729;28;19972;-55
2021/05/12 06:50:23;;;;;;;;;;;11.90;99.90;;;;;;5086348;28;20088;-53
2021/05/12 06:52:55;;;;;;;26.93;11.80;;;11.90;99.90;;;;;;5086066;28;19916;-56
2021/05/12 06:55:22;;;;;;;21.50;12.10;;;11.90;99.90;;;;;;5084593;28;20274;-51
2021/05/12 06:57:48;;;;;;;20.70;11.32;;;11.70;99.90;;;;;;5080834;28;20074;-55
2021/05/12 07:00:13;;;;;;;;;;;11.70;99.90;;;;;;5085500;28;20081;-55
2021/05/12 07:02:40;;;;;;;19.50;10.48;;;11.70;99.90;;;;;;5085983;28;19923;-56
2021/05/12 07:05:06;;;;;;;22.35;9.77;;;11.80;99.90;;;;;;5084369;28;20089;-56
2021/05/12 07:07:31;;;;;;;;;;;11.80;99.90;;;;;;5086128;28;20051;-55
2021/05/12 07:09:57;;;;;;;21.38;10.88;;;12.00;99.90;;;;;;5086013;28;19916;-56
2021/05/12 07:12:22;;;;;;;;;;;12.00;99.90;;;;;;5086007;28;20085;-54
2021/05/12 07:14:48;;;;;;;19.85;8.50;;;11.90;99.90;;;;;;5081028;28;20410;-55
2021/05/12 07:17:13;;;;;;;;;;;11.90;99.90;;;;;;5085369;28;20123;-52
2021/05/12 07:19:39;;;;;;;14.85;7.75;;;12.00;99.90;;;;;;5085772;28;19916;-50
2021/05/12 07:22:04;;;;;;;;;;;12.10;99.90;;;;;;5086346;28;20138;-53
2021/05/12 07:24:30;;;;;;;19.45;8.25;;;12.20;99.90;;;;;;5084534;28;19923;-54
2021/05/12 07:26:55;;;;;;;;;;;12.00;99.90;;;;;;5081229;28;20076;-52
2021/05/12 07:29:21;;;;;;;13.30;6.97;;;12.00;99.90;;;;;;5088673;28;19920;-55
2021/05/12 07:31:46;;;;;;;;;;;12.10;99.90;;;;;;5090319;28;20047;-55
2021/05/12 07:34:12;;;;;;;15.00;6.70;;;12.10;99.20;;;;;;5088272;28;19916;-57
2021/05/12 07:36:38;;;;;;;;;;;12.20;98.60;;;;;;5090054;28;20040;-56
2021/05/12 07:39:07;;;;;;;16.20;5.60;;;12.40;99.40;;;;;;5090096;28;20586;-56
2021/05/12 07:41:35;;;;;;;10.80;5.03;;;12.60;98.70;;;;;;5089356;28;20134;-51
2021/05/12 07:44:01;;;;;;;14.23;5.18;;;12.40;98.50;;;;;;5089135;28;20039;-51
2021/05/12 07:46:27;;;;;;;9.23;5.18;;;12.50;98.10;;;;;;5088457;28;20036;-55
2021/05/12 07:48:52;;;;;;;;;;;12.80;98.80;;;;;;5089931;28;20051;-56
2021/05/12 07:51:18;;;;;;;10.65;5.38;;;12.60;96.80;;;;;;5089562;28;19922;-57
2021/05/12 07:53:43;;;;;;;;;;;12.50;98.30;;;;;;5089849;28;20384;-57
2021/05/12 07:56:09;;;;;;;9.65;4.53;;;12.40;98.80;;;;;;5088548;28;19927;-54
2021/05/12 07:58:34;;;;;;;;;;;12.60;99.90;;;;;;5085842;28;20046;-53
2021/05/12 08:01:06;;;;;;;11.05;4.47;;;12.60;97.80;;;;;;5088978;28;19926;-54
2021/05/12 08:03:32;;;;;;;9.48;4.50;;;13.00;99.60;;;;;;5088967;28;20043;-54
2021/05/12 08:05:57;;;;;;;;;;;13.40;97.90;;;;;;5088834;28;20097;-57
2021/05/12 08:08:23;;;;;;;10.32;4.63;;;13.80;96.50;;;;;;5089571;28;20270;-57
2021/05/12 08:10:48;;;;;;;;;;;14.40;97.10;;;;;;5089195;28;20036;-57
2021/05/12 08:13:14;;;;;;;11.80;5.78;;;14.70;94.20;;;;;;5089193;28;19916;-58
2021/05/12 08:15:40;;;;;;;9.23;3.60;;;14.50;93.10;;;;;;5087085;28;20409;-58
2021/05/12 08:18:05;;;;;;;;;;;15.40;95.10;;;;;;5089821;28;20863;-58
2021/05/12 08:20:31;;;;;;;11.77;5.25;;;15.30;92.20;;;;;;5088852;28;19977;-54
2021/05/12 08:22:57;;;;;;;;;;;16.20;89.60;;;;;;5088899;28;20523;-56
2021/05/12 08:25:22;;;;;;;7.75;3.50;;;17.00;87.50;;;;;;5087606;28;19916;-57
2021/05/12 08:27:48;;;;;;;;;;;17.90;81.20;;;;;;5085126;28;20071;-56
2021/05/12 08:30:15;;;;;;;6.50;3.17;;;18.10;75.50;;;;;;5087951;28;19916;-57
2021/05/12 08:32:40;;;;;;;8.70;3.50;;;18.00;79.00;;;;;;5088259;28;20537;-55
2021/05/12 08:35:06;;;;;;;;;;;16.70;80.40;;;;;;5087478;28;20032;-48
2021/05/12 08:37:31;;;;;;;15.15;3.75;;;16.00;83.20;;;;;;5074145;28;20436;-55
2021/05/12 08:39:57;;;;;;;;;;;16.20;85.60;;;;;;5079580;28;20041;-56
2021/05/12 08:42:23;;;;;;;6.68;3.10;;;16.20;88.30;;;;;;5076538;28;20050;-54
2021/05/12 08:44:50;;;;;;;7.85;3.47;;;16.10;85.40;;;;;;5082529;28;20060;-57
2021/05/12 08:47:19;;;;;;;9.75;3.70;;;15.70;88.70;;;;;;5084592;28;20075;-53
2021/05/12 08:49:45;;;;;;;11.38;4.68;;;15.50;86.20;;;;;;5067806;28;20036;-56
2021/05/12 08:52:11;;;;;;;11.30;3.10;;;15.20;89.50;;;;;;5082022;28;20040;-55
2021/05/12 08:54:37;;;;;;;;;;;15.30;91.70;;;;;;5085013;28;20036;-56
2021/05/12 08:57:03;;;;;;;9.50;3.38;;;15.30;90.20;;;;;;5083762;28;19920;-57
2021/05/12 08:59:28;;;;;;;;;;;15.40;89.90;;;;;;5087401;28;20107;-57
2021/05/12 09:01:54;;;;;;;9.55;3.03;;;15.40;91.00;;;;;;5087601;28;19947;-57
2021/05/12 09:04:20;;;;;;;;;;;15.50;91.20;;;;;;5087739;28;20453;-57
2021/05/12 09:06:46;;;;;;;7.45;3.33;;;15.70;90.00;;;;;;5087460;28;19930;-57
2021/05/12 09:09:13;;;;;;;11.75;3.38;;;15.70;89.30;;;;;;5086411;28;20484;-58
2021/05/12 09:11:39;;;;;;;11.07;3.20;;;14.90;89.20;;;;;;5083568;28;20036;-56
2021/05/12 09:14:23;;;;;;;;;;;14.80;89.00;;;;;;5086268;28;20492;-57
2021/05/12 09:16:49;;;;;;;8.30;3.17;;;14.20;90.30;;;;;;5084724;28;20593;-55
2021/05/12 09:19:14;;;;;;;;;;;13.90;91.80;;;;;;5087540;28;20514;-56
2021/05/12 09:21:56;;;;;;;15.68;3.15;;;14.40;90.40;;;;;;5085892;28;20441;-54
2021/05/12 09:24:28;;;;;;;10.30;3.08;;;14.40;93.30;;;;;;5086093;28;20119;-55
2021/05/12 09:26:56;;;;;;;9.38;3.65;;;14.60;90.90;;;;;;5082309;28;20036;-58
2021/05/12 09:29:26;;;;;;;9.18;3.40;;;14.00;90.50;;;;;;5086477;28;20711;-56
2021/05/12 09:32:00;;;;;;;10.38;3.38;;;14.00;91.30;;;;;;5085670;28;20764;-54
2021/05/12 09:34:26;;;;;;;12.80;3.35;;;14.10;91.40;;;;;;5086017;28;20036;-56
2021/05/12 09:36:52;;;;;;;11.95;3.33;;;14.00;92.50;;;;;;5085770;28;20716;-57
2021/05/12 09:39:17;;;;;;;;;;;14.00;91.80;;;;;;5085600;28;20036;-53
2021/05/12 09:41:43;;;;;;;9.93;3.20;;;14.10;91.80;;;;;;5078553;28;19920;-56
2021/05/12 09:44:10;;;;;;;;;;;14.30;92.20;;;;;;5086117;28;20046;-58
2021/05/12 09:46:38;;;;;;;9.70;3.83;;;14.40;91.00;;;;;;5079294;28;19981;-56
2021/05/12 09:49:03;;;;;;;7.57;3.63;;;14.50;90.70;;;;;;5083123;28;20031;-57
2021/05/12 09:51:30;;;;;;;;;;;14.70;90.90;;;;;;5082277;28;20042;-57
2021/05/12 09:54:17;;;;;;;7.72;3.60;;;14.90;91.80;;;;;;5085244;28;20380;-56
2021/05/12 09:56:46;;;;;;;;;;;14.70;91.20;;;;;;5081861;28;20036;-57
2021/05/12 09:59:24;;;;;;;12.43;2.70;;;14.90;89.90;;;;;;5092021;28;19927;-56
2021/05/12 10:01:54;;;;;;;7.25;2.83;;;15.20;86.80;;;;;;5085268;28;20051;-56
2021/05/12 10:04:36;;;;;;;6.30;3.00;;;15.40;84.80;;;;;;5085440;28;20119;-56
2021/05/12 10:07:12;;;;;;;9.30;4.05;;;15.20;82.20;;;;;;5085748;28;20044;-58
2021/05/12 10:09:38;;;;;;;9.38;2.72;;;15.40;87.00;;;;;;5085901;28;20052;-53
2021/05/12 10:12:07;;;;;;;;;;;15.70;88.30;;;;;;5084270;28;20526;-55
2021/05/12 10:14:35;;;;;;;10.75;2.72;;;15.70;90.40;;;;;;5084649;28;20293;-57
2021/05/12 10:17:02;;;;;;;12.95;4.53;;;15.80;87.10;;;;;;5082084;28;20036;-57
2021/05/12 10:19:28;;;;;;;7.88;3.20;;;15.30;83.70;;;;;;5080042;28;20099;-57
2021/05/12 10:21:54;;;;;;;;;;;15.10;89.60;;;;;;5083831;28;20123;-58
2021/05/12 10:24:20;;;;;;;10.07;3.85;;;14.80;88.10;;;;;;5082202;28;19916;-59
2021/05/12 10:26:46;;;;;;;;;;;14.50;87.90;;;;;;5077831;28;20063;-56
2021/05/12 10:29:14;;;;;;;12.43;5.22;;;14.50;91.20;;;;;;5085826;28;19916;-58
2021/05/12 10:31:41;;;;;;;12.65;6.20;;;14.50;90.20;;;;;;5084420;28;20123;-58
2021/05/12 10:34:07;;;;;;;8.82;3.35;;;14.70;90.40;;;;;;5082566;28;20040;-57
2021/05/12 10:36:32;;;;;;;;;;;14.80;90.90;;;;;;5084775;28;20040;-57
2021/05/12 10:39:04;;;;;;;13.60;4.93;;;14.70;90.00;;;;;;5082890;28;20276;-55
2021/05/12 10:41:47;;;;;;;17.98;3.70;;;14.40;90.20;;;;;;5080274;28;20048;-56
2021/05/12 10:44:22;;;;;;;12.70;4.72;;;14.30;90.70;;;;;;5084373;28;20619;-57
2021/05/12 10:47:05;;;;;;;13.45;4.05;;;14.20;90.90;;;;;;5084106;28;20044;-57
2021/05/12 10:49:31;;;;;;;11.00;3.53;;;14.30;88.40;;;;;;5066806;28;20048;-53
2021/05/12 10:51:56;;;;;;;;;;;14.40;88.50;;;;;;5078629;28;20040;-55
2021/05/12 10:54:43;;;;;;;7.93;3.03;;;14.60;88.50;;;;;;5082389;28;19977;-56
2021/05/12 10:57:10;;;;;;;13.55;3.40;;;14.70;88.50;;;;;;5078849;28;20059;-58
2021/05/12 10:59:41;;;;;;;9.60;3.22;;;14.60;89.20;;;;;;5085037;28;20176;-58
2021/05/12 11:02:07;;;;;;;7.63;3.03;;;14.60;89.20;;;;;;5079824;28;20047;-57
2021/05/12 11:04:33;;;;;;;8.65;2.97;;;14.50;90.20;;;;;;5080686;28;20044;-55
2021/05/12 11:06:59;;;;;;;;;;;14.50;90.50;;;;;;5084646;28;20381;-58
2021/05/12 11:09:50;;;;;;;9.65;4.47;;;14.70;89.20;;;;;;5084306;28;19924;-58
2021/05/12 11:12:19;;;;;;;8.15;3.03;;;14.80;89.90;;;;;;5082055;28;20048;-58
2021/05/12 11:14:54;;;;;;;7.88;3.25;;;15.00;89.50;;;;;;5083474;28;20152;-58
2021/05/12 11:17:22;;;;;;;6.53;3.00;;;15.20;90.30;;;;;;5083747;28;20054;-58
2021/05/12 11:20:02;;;;;;;8.25;2.85;;;15.30;85.40;;;;;;5085832;28;20518;-58
2021/05/12 11:33:06;;;;;;;6.10;2.85;;;14.90;89.50;;;;;;5084317;28;20555;-58
2021/05/12 11:35:32;;;;;;;;;;;15.00;86.50;;;;;;5083232;28;20051;-57
2021/05/12 11:37:58;;;;;;;8.07;2.63;;;14.80;83.70;;;;;;5083955;28;21491;-55
2021/05/12 11:40:29;;;;;;;8.77;2.92;;;14.90;82.80;;;;;;5075687;28;20068;-58
2021/05/12 11:42:55;;;;;;;12.23;3.22;;;14.80;82.00;;;;;;5083916;28;20711;-57
2021/05/12 11:45:21;;;;;;;;;;;14.70;84.00;;;;;;5083042;28;20040;-57
2021/05/12 11:48:02;;;;;;;13.98;3.88;;;14.70;89.90;;;;;;5079380;28;19927;-53
2021/05/12 11:50:33;;;;;;;15.90;4.18;;;14.80;90.90;;;;;;5083947;28;20500;-57
2021/05/12 11:53:00;;;;;;;8.85;3.30;;;15.00;87.00;;;;;;5084804;28;20048;-56
2021/05/12 11:55:31;;;;;;;8.70;3.95;;;15.20;88.70;;;;;;5083155;28;20515;-58
2021/05/12 11:57:57;;;;;;;9.88;3.13;;;15.30;89.60;;;;;;5081436;28;20040;-58
2021/05/12 12:00:32;;;;;;;8.18;2.63;;;15.20;87.10;;;;;;5074805;28;20383;-57
2021/05/12 12:03:03;;;;;;;8.30;3.10;;;15.20;85.90;;;;;;5072638;28;20052;-57
2021/05/12 12:08:15;;;;;;;8.65;3.13;;;14.90;87.70;;;;;;5079549;28;20046;-54
2021/05/12 12:10:42;;;;;;;9.60;3.13;;;14.80;84.00;;;;;;5076384;28;20515;-57
2021/05/12 12:13:14;;;;;;;10.02;3.47;;;14.50;85.30;;;;;;5076136;28;20063;-55
2021/05/12 12:15:48;;;;;;;7.95;2.90;;;14.40;87.60;;;;;;5087184;28;20036;-56
2021/05/12 12:18:26;;;;;;;11.40;3.05;;;14.60;90.00;;;;;;5086639;28;20040;-58
2021/05/12 12:20:51;;;;;;;5.32;2.47;;;14.60;85.90;;;;;;5080151;28;20044;-54
2021/05/12 12:23:24;;;;;;;;;;;14.70;88.60;;;;;;5088201;28;20055;-58
2021/05/12 12:26:18;;;;;;;4.63;2.92;;;14.80;87.90;;;;;;5081158;28;19927;-56
2021/05/12 12:28:48;;;;;;;18.50;9.63;;;14.80;87.90;;;;;;5084965;28;20036;-56
2021/05/12 12:31:22;;;;;;;10.98;4.07;;;14.90;87.70;;;;;;5084212;28;20078;-55
2021/05/12 12:34:07;;;;;;;6.03;3.40;;;15.00;87.30;;;;;;5082298;28;20074;-58
2021/05/12 12:36:32;;;;;;;9.65;3.35;;;14.90;85.30;;;;;;5087788;28;20526;-57
2021/05/12 12:39:02;;;;;;;;;;;15.00;89.20;;;;;;5087989;28;20064;-54
2021/05/12 12:41:29;;;;;;;14.90;5.10;;;15.00;84.20;;;;;;5087828;28;19954;-56
2021/05/12 12:43:55;;;;;;;10.55;4.55;;;14.80;83.60;;;;;;5085256;28;20048;-56
2021/05/12 12:46:26;;;;;;;;;;;14.40;85.50;;;;;;5086404;28;20123;-56
2021/05/12 12:48:52;;;;;;;7.55;4.00;;;14.50;86.10;;;;;;5086549;28;20009;-58
2021/05/12 12:51:37;;;;;;;;;;;14.60;86.70;;;;;;5087628;28;20492;-57
2021/05/12 12:54:04;;;;;;;7.55;3.17;;;14.80;86.50;;;;;;5085850;28;19919;-53
2021/05/12 12:56:30;;;;;;;9.20;4.97;;;14.90;84.40;;;;;;5084404;28;20514;-54
2021/05/12 12:59:06;;;;;;;;;;;14.80;83.10;;;;;;5082769;28;20048;-57
2021/05/12 13:01:35;;;;;;;9.50;4.28;;;15.00;87.70;;;;;;5087579;28;19920;-56
2021/05/12 13:04:20;;;;;;;9.48;3.78;;;14.80;83.90;;;;;;5087250;28;20055;-58
2021/05/12 13:07:02;;;;;;;8.20;3.60;;;14.90;85.10;;;;;;5088541;28;20165;-58
2021/05/12 13:09:29;;;;;;;7.07;2.85;;;15.00;83.20;;;;;;5082259;28;20040;-56
2021/05/12 13:11:58;;;;;;;5.75;2.60;;;15.00;85.10;;;;;;5083752;28;20063;-57
2021/05/12 13:14:24;;;;;;;6.53;3.10;;;15.00;84.10;;;;;;5086686;28;20036;-57
2021/05/12 13:17:01;;;;;;;;;;;15.20;83.80;;;;;;5083177;28;20574;-57
2021/05/12 13:19:26;;;;;;;10.82;3.70;;;14.80;84.80;;;;;;5076766;28;20391;-56
2021/05/12 13:21:53;;;;;;;;;;;15.00;85.30;;;;;;5075905;28;20044;-57